Cape Lambert — V7TC9 — position and weather

sailwx.info

Track history (hours):
 
Tides and Currents Weather Stations Pressure Air Temp Water Temp Dewpoint Dewpoint Depression Visibility Wind Speed Wind Dir Waves Ship Positions

Cape Lambert

Last reported at 2018-Feb-20 16:14 UTC. Time now 2018-Feb-21 09:49 UTC.
Position S 28°26' E 153°54'.

Length 290 m; draft 17.5 m.

Type: Cargo ship. MMSI: 538003781.

Date/timePositionNaut miles runAvg speedWind from/ knotsBaromVisibWave heightAir tempDewpointWater temp
2018-Feb-20 16:14S 28°26' E 153°54'210.3
2018-Feb-20 16:00S 28°24' E 153°54'510.8
2018-Feb-20 15:30S 28°18' E 153°54'711.1
2018-Feb-20 14:55S 28°12' E 153°54'511.4
2018-Feb-20 14:29S 28°07' E 153°53'511.4
2018-Feb-20 14:00S 28°01' E 153°53'611.1
2018-Feb-20 13:30S 27°56' E 153°53'510.8
2018-Feb-20 13:00S 27°50' E 153°53'510.5
2018-Feb-20 12:30S 27°45' E 153°53'510.7
2018-Feb-20 11:59S 27°40' E 153°53'  
2018-Feb-12 19:31S 19°09' E 150°58'013.7
2018-Feb-12 19:30S 19°09' E 150°58'1212.9
2018-Feb-12 18:34S 18°60' E 151°07'113.5
2018-Feb-12 18:29S 18°59' E 151°08'1412.7
2018-Feb-12 17:23S 18°48' E 151°17'1412.5
2018-Feb-12 16:14S 18°38' E 151°28'412.4
2018-Feb-12 15:53S 18°34' E 151°31'812.4
2018-Feb-12 15:12S 18°28' E 151°36'312.6
2018-Feb-12 14:56S 18°25' E 151°39'  
Track history (hours):
 
Tides and Currents Weather Stations Pressure Air Temp Water Temp Dewpoint Dewpoint Depression Visibility Wind Speed Wind Dir Waves Ship Positions

Cape Lambert

Last reported at 2018-Feb-20 16:14 UTC. Time now 2018-Feb-21 09:49 UTC.
Position S 28°26' E 153°54'.

Length 290 m; draft 17.5 m.

Type: Cargo ship. MMSI: 538003781.

Date/timePositionNaut miles runAvg speedWind from/ knotsBaromVisibWave heightAir tempDewpointWater temp
2018-Feb-20 16:14S 28°26' E 153°54'210.3
2018-Feb-20 16:00S 28°24' E 153°54'510.8
2018-Feb-20 15:30S 28°18' E 153°54'711.1
2018-Feb-20 14:55S 28°12' E 153°54'511.4
2018-Feb-20 14:29S 28°07' E 153°53'511.4
2018-Feb-20 14:00S 28°01' E 153°53'611.1
2018-Feb-20 13:30S 27°56' E 153°53'510.8
2018-Feb-20 13:00S 27°50' E 153°53'510.5
2018-Feb-20 12:30S 27°45' E 153°53'510.7
2018-Feb-20 11:59S 27°40' E 153°53'  
2018-Feb-12 19:31S 19°09' E 150°58'013.7
2018-Feb-12 19:30S 19°09' E 150°58'1212.9
2018-Feb-12 18:34S 18°60' E 151°07'113.5
2018-Feb-12 18:29S 18°59' E 151°08'1412.7
2018-Feb-12 17:23S 18°48' E 151°17'1412.5
2018-Feb-12 16:14S 18°38' E 151°28'412.4
2018-Feb-12 15:53S 18°34' E 151°31'812.4
2018-Feb-12 15:12S 18°28' E 151°36'312.6
2018-Feb-12 14:56S 18°25' E 151°39'  

Dump ship's entire track history